createdAt,value
2022-11-13T00:01:16.867Z,5.90
2022-11-13T00:05:20.362Z,5.90
2022-11-13T00:09:25.080Z,5.90
2022-11-13T00:13:30.536Z,5.90
2022-11-13T00:17:34.106Z,5.90
2022-11-13T00:21:37.342Z,6.00
2022-11-13T00:25:42.142Z,6.00
2022-11-13T00:29:45.895Z,5.90
2022-11-13T00:38:12.640Z,6.00
2022-11-13T00:42:17.290Z,6.10
2022-11-13T00:46:21.089Z,6.00
2022-11-13T00:50:24.380Z,6.00
2022-11-13T00:54:27.725Z,6.00
2022-11-13T00:58:32.546Z,5.90
2022-11-13T01:02:35.838Z,5.80
2022-11-13T01:06:39.097Z,5.80
2022-11-13T01:10:45.583Z,5.60
2022-11-13T01:14:52.229Z,5.60
2022-11-13T01:18:57.332Z,5.30
2022-11-13T01:23:00.613Z,5.20
2022-11-13T01:27:03.911Z,4.90
2022-11-13T01:31:10.009Z,4.80
2022-11-13T01:35:13.244Z,4.60
2022-11-13T01:39:16.732Z,4.50
2022-11-13T01:43:27.176Z,4.30
2022-11-13T01:47:32.998Z,4.20
2022-11-13T01:51:40.466Z,4.10
2022-11-13T01:55:44.014Z,4.00
2022-11-13T01:59:52.836Z,3.90
2022-11-13T02:03:57.521Z,3.90
2022-11-13T02:08:01.702Z,3.70
2022-11-13T02:12:06.986Z,3.50
2022-11-13T02:16:13.478Z,3.40
2022-11-13T02:20:22.236Z,3.40
2022-11-13T02:24:32.379Z,3.30
2022-11-13T02:28:36.537Z,3.30
2022-11-13T02:32:44.898Z,3.30
2022-11-13T02:36:48.173Z,3.10
2022-11-13T02:40:52.961Z,3.00
2022-11-13T02:44:56.228Z,2.90
2022-11-13T02:48:59.503Z,2.70
2022-11-13T02:53:03.003Z,2.70
2022-11-13T02:57:07.632Z,2.70
2022-11-13T03:01:10.904Z,2.80
2022-11-13T03:05:14.448Z,2.80
2022-11-13T03:09:17.950Z,2.60
2022-11-13T03:13:22.600Z,2.50
2022-11-13T03:17:25.882Z,2.30
2022-11-13T03:21:29.205Z,2.30
2022-11-13T03:25:47.565Z,2.30
2022-11-13T03:29:52.236Z,2.20
2022-11-13T03:33:55.587Z,2.30
2022-11-13T03:37:58.829Z,2.20
2022-11-13T03:42:02.078Z,2.00
2022-11-13T03:46:06.934Z,2.00
2022-11-13T03:50:10.886Z,1.90
2022-11-13T03:54:14.207Z,1.80
2022-11-13T03:58:17.769Z,1.90
2022-11-13T04:02:22.499Z,1.90
2022-11-13T04:06:25.800Z,1.90
2022-11-13T04:10:29.365Z,1.80
2022-11-13T04:14:32.697Z,1.60
2022-11-13T04:18:37.340Z,1.50
2022-11-13T04:22:50.817Z,1.60
2022-11-13T04:26:54.104Z,1.50
2022-11-13T04:30:57.653Z,1.40
2022-11-13T04:35:02.308Z,1.40
2022-11-13T04:39:05.809Z,1.40
2022-11-13T04:43:09.053Z,1.40
2022-11-13T04:47:12.502Z,1.40
2022-11-13T04:51:17.185Z,1.30
2022-11-13T04:55:20.556Z,1.20
2022-11-13T04:59:24.640Z,1.20
2022-11-13T05:03:27.875Z,1.20
2022-11-13T05:07:32.605Z,1.40
2022-11-13T05:11:35.861Z,1.20
2022-11-13T05:15:39.152Z,1.20
2022-11-13T05:19:42.453Z,1.10
2022-11-13T05:23:47.241Z,1.20
2022-11-13T05:27:50.476Z,1.50
2022-11-13T05:31:53.846Z,1.80
2022-11-13T05:35:57.154Z,2.10
2022-11-13T05:40:01.883Z,2.20
2022-11-13T05:44:05.416Z,2.50
2022-11-13T05:48:08.803Z,2.70
2022-11-13T05:52:12.100Z,2.80
2022-11-13T05:56:18.885Z,2.90
2022-11-13T06:00:22.195Z,3.00
2022-11-13T06:04:25.464Z,3.00
2022-11-13T06:08:29.559Z,3.00
2022-11-13T06:12:34.555Z,3.10
2022-11-13T06:16:39.887Z,3.20
2022-11-13T06:20:43.171Z,3.30
2022-11-13T06:24:46.685Z,3.50
2022-11-13T06:28:53.844Z,3.50
2022-11-13T06:32:58.689Z,3.70
2022-11-13T06:37:02.370Z,3.80
2022-11-13T06:41:07.057Z,3.90
2022-11-13T06:45:12.816Z,4.00
2022-11-13T06:49:16.385Z,4.00
2022-11-13T06:53:20.060Z,4.10
2022-11-13T06:57:23.310Z,4.20
2022-11-13T07:01:28.446Z,4.30
2022-11-13T07:05:39.685Z,4.50
2022-11-13T07:09:43.004Z,4.60
2022-11-13T07:13:46.705Z,4.60
2022-11-13T07:17:51.337Z,4.60
2022-11-13T07:21:54.597Z,4.80
2022-11-13T07:25:57.911Z,5.00
2022-11-13T07:30:03.940Z,5.00
2022-11-13T07:34:09.016Z,5.20
2022-11-13T07:38:12.358Z,5.40
2022-11-13T07:42:16.191Z,5.60
2022-11-13T07:46:19.531Z,5.80
2022-11-13T07:50:24.181Z,6.00
2022-11-13T07:54:27.491Z,6.10
2022-11-13T07:58:32.109Z,6.30
2022-11-13T08:02:35.499Z,6.30
2022-11-13T08:06:40.631Z,6.40
2022-11-13T08:10:44.096Z,6.70
2022-11-13T08:14:47.353Z,6.90
2022-11-13T08:18:51.010Z,6.90
2022-11-13T08:22:58.275Z,6.90
2022-11-13T08:27:01.580Z,6.90
2022-11-13T08:31:33.812Z,7.10
2022-11-13T08:35:37.168Z,7.40
2022-11-13T08:39:41.966Z,7.50
2022-11-13T08:43:45.592Z,8.20
2022-11-13T08:47:48.865Z,9.20
2022-11-13T08:51:52.178Z,9.60
2022-11-13T08:55:56.822Z,9.70
2022-11-13T09:00:00.135Z,9.80
2022-11-13T09:04:03.811Z,9.60
2022-11-13T09:08:07.810Z,9.20
2022-11-13T09:12:12.551Z,9.00
2022-11-13T09:16:16.156Z,9.00
2022-11-13T09:20:22.663Z,9.20
2022-11-13T09:24:26.323Z,9.30
2022-11-13T09:28:31.302Z,9.80
2022-11-13T09:32:35.059Z,10.10
2022-11-13T09:36:38.638Z,11.00
2022-11-13T09:40:46.393Z,12.60
2022-11-13T09:44:56.029Z,13.40
2022-11-13T09:49:05.356Z,13.90
2022-11-13T09:53:11.334Z,14.20
2022-11-13T09:57:26.441Z,14.50
2022-11-13T10:01:39.753Z,14.20
2022-11-13T10:05:51.315Z,16.10
2022-11-13T10:10:06.842Z,17.30
2022-11-13T10:14:16.441Z,17.50
2022-11-13T10:18:25.665Z,17.00
2022-11-13T10:22:38.762Z,15.70
2022-11-13T10:26:42.370Z,15.10
2022-11-13T10:30:47.103Z,15.90
2022-11-13T10:40:11.178Z,17.30
2022-11-13T10:44:41.508Z,17.50
2022-11-13T10:48:45.075Z,18.70
2022-11-13T10:52:54.606Z,19.30
2022-11-13T10:57:36.211Z,18.70
2022-11-13T11:01:40.643Z,19.00
2022-11-13T11:05:54.921Z,19.00
2022-11-13T11:09:59.798Z,20.20
2022-11-13T11:14:12.289Z,21.40
2022-11-13T11:18:25.728Z,22.60
2022-11-13T11:22:34.353Z,21.90
2022-11-13T11:26:43.505Z,19.50
2022-11-13T11:30:52.988Z,20.00
2022-11-13T11:35:02.601Z,21.40
2022-11-13T11:39:26.720Z,22.30
2022-11-13T11:43:44.140Z,21.80
2022-11-13T11:47:47.883Z,21.60
2022-11-13T11:52:00.829Z,19.40
2022-11-13T11:56:24.776Z,17.20
2022-11-13T12:00:32.409Z,15.20
2022-11-13T12:04:48.011Z,14.60
2022-11-13T12:08:57.125Z,16.70
2022-11-13T12:13:14.207Z,19.70
2022-11-13T12:17:45.249Z,22.00
2022-11-13T12:21:57.694Z,22.40
2022-11-13T12:26:07.146Z,23.10
2022-11-13T12:30:14.801Z,22.50
2022-11-13T12:34:26.533Z,22.20
2022-11-13T12:38:37.626Z,21.90
2022-11-13T12:42:47.498Z,22.70
2022-11-13T12:46:51.715Z,23.30
2022-11-13T12:51:01.402Z,21.50
2022-11-13T12:55:10.271Z,23.10
2022-11-13T12:59:33.157Z,23.60
2022-11-13T13:03:51.122Z,23.10
2022-11-13T13:08:27.061Z,21.70
2022-11-13T13:12:43.307Z,19.60
2022-11-13T13:16:46.654Z,17.40
2022-11-13T13:21:03.188Z,15.70
2022-11-13T13:25:24.224Z,14.60
2022-11-13T13:29:29.007Z,13.90
2022-11-13T13:33:43.919Z,13.50
2022-11-13T13:37:58.148Z,13.30
2022-11-13T13:42:21.507Z,13.40
2022-11-13T13:46:28.314Z,13.50
2022-11-13T13:50:35.969Z,13.50
2022-11-13T13:54:43.571Z,13.40
2022-11-13T13:58:49.804Z,13.60
2022-11-13T14:02:54.617Z,13.50
2022-11-13T14:07:00.341Z,13.10
2022-11-13T14:11:05.943Z,12.90
2022-11-13T14:15:24.233Z,12.60
2022-11-13T14:19:28.358Z,12.10
2022-11-13T14:23:37.552Z,12.00
2022-11-13T14:27:41.091Z,11.90
2022-11-13T14:31:46.028Z,11.70
2022-11-13T14:35:54.314Z,11.20
2022-11-13T14:40:02.098Z,11.00
2022-11-13T14:44:06.813Z,10.80
2022-11-13T14:48:22.465Z,10.60
2022-11-13T14:52:27.389Z,10.40
2022-11-13T14:56:37.301Z,10.10
2022-11-13T15:00:41.234Z,9.70
2022-11-13T15:04:47.049Z,9.60
2022-11-13T15:08:56.392Z,9.30
2022-11-13T15:13:02.027Z,9.00
2022-11-13T15:17:05.952Z,8.80
2022-11-13T15:21:11.406Z,8.50
2022-11-13T15:25:18.544Z,8.20
2022-11-13T15:29:22.748Z,7.90
2022-11-13T15:33:27.581Z,7.70
2022-11-13T15:37:38.094Z,7.50
2022-11-13T15:41:42.397Z,7.30
2022-11-13T15:45:48.619Z,7.10
2022-11-13T15:50:12.371Z,7.00
2022-11-13T15:54:22.984Z,6.90
2022-11-13T15:58:33.513Z,6.80
2022-11-13T16:02:40.098Z,6.60
2022-11-13T16:06:47.957Z,6.40
2022-11-13T16:10:55.028Z,6.20
2022-11-13T16:14:59.341Z,6.00
2022-11-13T16:19:04.257Z,5.90
2022-11-13T16:23:16.100Z,5.80
2022-11-13T16:27:28.042Z,5.70
2022-11-13T16:31:32.100Z,5.50
2022-11-13T16:35:37.815Z,5.40
2022-11-13T16:39:41.880Z,5.30
2022-11-13T16:43:48.867Z,5.30
2022-11-13T16:47:53.803Z,5.20
2022-11-13T16:51:59.789Z,5.00
2022-11-13T16:56:07.968Z,4.90
2022-11-13T17:00:19.842Z,4.80
2022-11-13T17:04:24.652Z,4.80
2022-11-13T17:08:29.254Z,4.70
2022-11-13T17:12:34.151Z,4.60
2022-11-13T17:16:40.961Z,4.50
2022-11-13T17:20:46.466Z,4.40
2022-11-13T17:24:53.105Z,4.30
2022-11-13T17:28:58.523Z,4.30
2022-11-13T17:33:05.399Z,4.30
2022-11-13T17:37:25.376Z,4.20
2022-11-13T17:41:32.743Z,4.10
2022-11-13T17:45:45.639Z,4.10
2022-11-13T17:49:52.534Z,4.00
2022-11-13T17:54:01.788Z,4.00
2022-11-13T17:58:08.343Z,4.00
2022-11-13T18:02:17.705Z,4.10
2022-11-13T18:11:21.966Z,4.40
2022-11-13T18:15:40.133Z,4.50
2022-11-13T18:19:44.619Z,4.60
2022-11-13T18:23:58.533Z,4.80
2022-11-13T18:28:05.525Z,5.00
2022-11-13T18:32:10.728Z,5.00
2022-11-13T18:36:14.772Z,5.10
2022-11-13T18:40:21.702Z,5.20
2022-11-13T18:44:27.180Z,5.30
2022-11-13T18:48:34.029Z,5.40
2022-11-13T18:52:39.037Z,5.40
2022-11-13T18:56:48.520Z,5.40
2022-11-13T19:00:52.618Z,5.50
2022-11-13T19:04:57.797Z,5.50
2022-11-13T19:09:04.951Z,5.50
2022-11-13T19:13:12.323Z,5.60
2022-11-13T19:17:17.808Z,5.70
2022-11-13T19:21:24.464Z,5.70
2022-11-13T19:25:32.023Z,5.70
2022-11-13T19:29:40.581Z,5.80
2022-11-13T19:33:50.367Z,5.80
2022-11-13T19:38:00.472Z,5.90
2022-11-13T19:42:06.486Z,6.00
2022-11-13T19:46:15.490Z,6.00
2022-11-13T19:50:20.267Z,6.00
2022-11-13T19:54:27.206Z,6.10
2022-11-13T19:58:35.131Z,6.10
2022-11-13T20:02:42.803Z,6.10
2022-11-13T20:06:48.365Z,6.10
2022-11-13T20:10:56.154Z,6.20
2022-11-13T20:15:02.703Z,6.20
2022-11-13T20:19:09.407Z,6.20
2022-11-13T20:23:16.498Z,6.40
2022-11-13T20:27:32.466Z,6.40
2022-11-13T20:31:38.881Z,6.40
2022-11-13T20:35:47.328Z,6.40
2022-11-13T20:39:53.238Z,6.40
2022-11-13T20:44:03.722Z,6.40
2022-11-13T20:48:08.763Z,6.50
2022-11-13T20:52:16.100Z,6.50
2022-11-13T20:56:25.260Z,6.50
2022-11-13T21:00:30.148Z,6.60
2022-11-13T21:04:34.217Z,6.50
2022-11-13T21:08:39.412Z,6.50
2022-11-13T21:12:43.386Z,6.50
2022-11-13T21:16:50.040Z,6.60
2022-11-13T21:20:56.417Z,6.60
2022-11-13T21:25:15.241Z,6.60
2022-11-13T21:29:19.329Z,6.60
2022-11-13T21:33:22.698Z,6.60
2022-11-13T21:37:27.093Z,6.60
2022-11-13T21:41:32.045Z,6.60
2022-11-13T21:45:35.516Z,6.70
2022-11-13T21:49:38.837Z,6.70
2022-11-13T21:53:42.994Z,6.70
2022-11-13T21:57:47.691Z,6.70
2022-11-13T22:01:51.151Z,6.70
2022-11-13T22:06:19.392Z,6.80
2022-11-13T22:10:22.657Z,6.80
2022-11-13T22:14:27.377Z,6.70
2022-11-13T22:18:30.845Z,6.90
2022-11-13T22:22:34.480Z,6.80
2022-11-13T22:26:39.385Z,6.90
2022-11-13T22:30:47.352Z,6.90
2022-11-13T22:34:50.628Z,6.80
2022-11-13T22:38:54.490Z,6.80
2022-11-13T22:42:57.781Z,6.90
2022-11-13T22:47:02.500Z,6.90
2022-11-13T22:51:07.520Z,6.90
2022-11-13T22:55:11.089Z,7.00
2022-11-13T22:59:14.357Z,6.90
2022-11-13T23:03:19.146Z,6.90
2022-11-13T23:07:22.535Z,6.90
2022-11-13T23:11:29.731Z,7.00
2022-11-13T23:15:33.218Z,7.00
2022-11-13T23:19:37.918Z,6.90
2022-11-13T23:23:41.551Z,6.90
2022-11-13T23:27:45.357Z,6.90
2022-11-13T23:31:48.654Z,6.90
2022-11-13T23:35:53.814Z,7.00
2022-11-13T23:39:57.067Z,7.00
2022-11-13T23:44:09.465Z,7.00
2022-11-13T23:48:13.139Z,7.00
2022-11-13T23:52:17.867Z,7.00
2022-11-13T23:56:21.221Z,7.00
